Tiempo atmosférico en la estación meteorológica de Campos, Salines Llevant, Illes Balears (3 m.)



Fecha
DESCASC
Temp. máxima en grados centígrados (hora)
DESCASC
Temp. mínima en grados centígrados (hora)
DESCASC
Temp. media en grados centígrados
DESCASC
Racha de viento máxima en m/sg (hora)
DESCASC
Velocidad máxima media en intervalos de 10 minutos(hora)
DESCASC
Precipitaciones diarias en mm
DESCASC
Precipitaciones de 00:00 a 06:00 en mm
DESCASC
Precipitaciones de 06:00 a 12:00 en mm
DESCASC
Precipitaciones de 12:00 a 18:00 en mm
DESCASC
Precipitaciones de 18:00 a 24:00 en mm
DESCASC
02-01-2021 10.2 (12:40) 0.4 (00:00) 5.3 11.67 (17:10) 8.06 (09:10) 2.2 0 1.8 0.4 0
16-01-2021 14.2 (15:20) 0.5 (00:00) 7.3 12.5 (11:40) 6.11 (11:30) 1.4 0 1.4 0 0
05-01-2021 11.8 (14:40) -1.8 (-00:0) 5 12.78 (14:50) 7.22 (14:20) 1.4 0.2 1.2 0 0
08-01-2021 10.3 (12:40) 6.4 (00:00) 8.4 12.5 (13:50) 7.78 (12:50) 9 4.4 0.6 2 2
04-01-2021 12.8 (14:10) 0.4 (00:00) 6.6 15 (15:40) 8.33 (16:00) 2 1.4 0.6 0 0
07-01-2021 9.2 (13:00) 5 (00:00) 7.1 8.33 (19:20) 5.56 (19:10) 3.4 0.4 0.4 0.8 1.8
28-12-2020 15.3 (14:50) 10.2 (00:00) 12.8 24.17 (08:50) 16.94 (08:50) 1 0 0.4 0.6 0
09-01-2021 16.8 (13:10) 8.4 (00:00) 12.6 12.22 (20:20) 6.67 (22:10) 0.4 0.2 0.2 0 0
14-01-2021 14.3 (13:20) -1.3 (08:10) 6.5 7.78 (15:20) 5.83 (15:20) 0 0 0 0 0
11-01-2021 10.3 (13:00) 5.9 (00:00) 8.1 11.94 (00:40) 7.78 (01:50) 0 0 0 0 0
12-01-2021 13 (15:40) -1.6 (-00:0) 5.7 10.56 (14:40) 7.78 (14:50) 0 0 0 0 0
13-01-2021 14.8 (14:40) -1.9 (-00:0) 6.5 9.44 (16:00) 6.67 (16:00) 0 0 0 0 0
21-01-2021 17 (13:50) 13.7 (00:00) 15.3 15.28 (11:40) 8.06 (12:10) 0 0 0 0 0
15-01-2021 14.1 (12:30) -1.4 (-00:0) 6.4 10.56 (15:40) 7.5 (14:30) 0 0 0 0 0
17-01-2021 15.6 (13:40) 2 (00:00) 8.8 14.17 (13:40) 10.28 (13:40) 0 0 0 0 0
18-01-2021 15.4 (13:20) 2 (00:00) 8.7 6.94 (14:50) 4.44 (15:30) 0 0 0 0 0
19-01-2021 15.4 (14:00) 0.3 (00:00) 7.8 8.33 (12:40) 5.28 (12:40) 0 0 0 0 0
20-01-2021 15.9 (12:40) 1.4 (00:00) 8.6 9.44 (15:10) 6.39 (15:10) 0 0 0 0 0
23-12-2020 18.4 (15:00) 4.6 (00:00) 11.5 6.11 (11:40) 3.61 (11:40) 0 0 0 0 0
10-01-2021 12.9 (15:50) 7 (21:30) 9.9 10.28 (11:00) 5.83 (01:30) 0 0 0 0 0
06-01-2021 13.4 (15:10) -3.8 (-00:0) 4.8 6.11 (16:00) 4.44 (16:10) 0 0 0 0 0
03-01-2021 11.9 (13:20) -0.5 (-00:0) 5.7 9.72 (14:50) 6.67 (14:50) 0 0 0 0 0
01-01-2021 13.5 (00:10) 7.1 (00:00) 10.3 14.72 (02:40) 9.17 (12:00) 3.8 0 0 1.4 2.4
31-12-2020 14.4 (12:10) 0.7 (00:00) 7.5 12.78 (23:40) 8.61 (02:10) 0 0 0 0 0
30-12-2020 13.1 (13:50) 2.2 (00:00) 7.7 14.17 (14:40) 9.72 (14:00) 0 0 0 0 0
29-12-2020 14.8 (14:00) 6.6 (00:00) 10.7 13.61 (10:40) 8.89 (21:50) 1.6 0 0 0 1.6
27-12-2020 14.4 (13:30) -3.1 (-00:0) 5.6 16.94 (20:20) 9.17 (13:40) 0 0 0 0 0
26-12-2020 11.7 (14:50) -1.1 (-00:0) 5.3 7.78 (14:00) 5 (14:00) 0 0 0 0 0
25-12-2020 14 (13:20) 1.7 (00:00) 7.9 13.33 (16:50) 8.61 (16:50) 0 0 0 0 0
24-12-2020 18.5 (14:10) 10.4 (00:00) 14.4 5.83 (01:20) 3.89 (01:20) 0 0 0 0 0

Gráficas

Temp. máximas Temp. mínimas Temp. medias Precipitaciones Rachas de viento máximas Velocidades máximas media en intervalos de 10 minutos

Datos horarios

Fecha y hora oficial Temperatura (ºC) Velocidad del viento (km/h) Dirección del viento Racha (km/h) Dirección de racha Precipitación (mm) Presión (hPa) Tendencia (hPa) Humedad (%)
2021-01-21 23:00:00 14.8 14 Sudoeste 28 Sudoeste 0 -- -- 87
2021-01-21 22:00:00 14.6 10 Sudoeste 24 Sudoeste 0 -- -- 87
2021-01-21 21:00:00 14.6 11 Sudoeste 27 Sudoeste 0 -- -- 87
2021-01-21 20:00:00 14.6 17 Sudoeste 35 Sudoeste 0 -- -- 86
2021-01-21 19:00:00 14.7 20 Sudoeste 36 Sudoeste 0 -- -- 86
2021-01-21 18:00:00 14.8 16 Sudoeste 33 Oeste 0 -- -- 82
2021-01-21 17:00:00 15.6 17 Sudoeste 33 Oeste 0 -- -- 77
2021-01-21 16:00:00 16.7 14 Sudoeste 34 Oeste 0 -- -- 75
2021-01-21 15:00:00 16.8 22 Oeste 37 Oeste 0 -- -- 76
2021-01-21 14:00:00 17 25 Oeste 38 Oeste 0 -- -- 70
2021-01-21 13:00:00 16.5 23 Oeste 39 Oeste 0 -- -- 75
2021-01-21 12:00:00 16 26 Oeste 55 Oeste 0 -- -- 76
2021-01-21 11:00:00 15.9 22 Oeste 39 Oeste 0 -- -- 76
2021-01-21 10:00:00 15.1 18 Oeste 34 Oeste 0 -- -- 82
2021-01-21 09:00:00 14.3 13 Sudoeste 26 Sudoeste 0 -- -- 88
2021-01-21 08:00:00 13.8 14 Sudoeste 27 Sudoeste 0 -- -- 89
2021-01-21 07:00:00 13.9 17 Sudoeste 28 Sudoeste 0 -- -- 89
2021-01-21 06:00:00 13.8 18 Oeste 30 Oeste 0 -- -- 91
2021-01-21 05:00:00 14.2 18 Oeste 30 Oeste 0 -- -- 89
2021-01-21 04:00:00 14.4 17 Oeste 29 Oeste 0 -- -- 89
2021-01-21 03:00:00 14.4 12 Oeste 27 Oeste 0 -- -- 89
2021-01-21 02:00:00 14.4 16 Sudoeste 27 Oeste 0 -- -- 89
2021-01-21 01:00:00 14.2 12 Sudoeste 27 Sudoeste 0 -- -- 90
2021-01-21 00:00:00 14.3 12 Sudoeste 27 Sudoeste 0 -- -- 89
2021-01-20 23:00:00 14.2 13 Sudoeste 31 Sudoeste 0 -- -- 89
2021-01-20 22:00:00 14.2 17 Sudoeste 32 Sudoeste 0 -- -- 87
2021-01-20 21:00:00 14 13 Sudoeste 27 Sudoeste 0 -- -- 86
2021-01-20 20:00:00 13.9 14 Sudoeste 26 Sudoeste 0 -- -- 84
2021-01-20 19:00:00 13.7 15 Sudoeste 28 Sudoeste 0 -- -- 84
2021-01-20 18:00:00 13.6 15 Sudoeste 28 Sudoeste 0 -- -- 82
2021-01-20 17:00:00 13.8 14 Sudoeste 31 Sudoeste 0 -- -- 81
2021-01-20 16:00:00 14.3 21 Sudoeste 34 Oeste 0 -- -- 81
2021-01-20 15:00:00 14.9 20 Sudoeste 32 Oeste 0 -- -- 80
2021-01-20 14:00:00 14.8 11 Sudoeste 26 Oeste 0 -- -- 83
2021-01-20 13:00:00 15.4 13 Sudoeste 26 Sudoeste 0 -- -- 80
2021-01-20 12:00:00 15.2 14 Sudoeste 23 Sudoeste 0 -- -- 85
2021-01-20 11:00:00 9.5 2 Norte 6 Norte 0 -- -- 99
2021-01-20 10:00:00 6 0 Calma 3 Norte 0 -- -- 98
2021-01-20 09:00:00 2.3 0 Calma 2 Sudeste 0 -- -- 99
2021-01-20 08:00:00 1.4 0 Calma 2 Sur 0 -- -- 97
2021-01-20 07:00:00 2.4 0 Calma 2 Sudeste 0 -- -- 97
2021-01-20 06:00:00 2.7 0 Calma 3 Sudeste 0 -- -- 97
2021-01-20 05:00:00 2 0 Calma 4 Sudeste 0 -- -- 96
2021-01-20 04:00:00 2.1 0 Calma 4 Sudeste 0 -- -- 96
2021-01-20 03:00:00 2.5 0 Calma 3 Noroeste 0 -- -- 95
2021-01-20 02:00:00 3.3 0 Calma 4 Sudeste 0 -- -- 94
2021-01-20 01:00:00 4.2 2 Sudeste 5 Sudeste 0 -- -- 95
2021-01-20 00:00:00 5.2 0 Calma 2 Noroeste 0 -- -- 94
2021-01-19 23:00:00 5.2 0 Calma 6 Sudeste 0 -- -- 93
2021-01-19 22:00:00 7 6 Sudeste 6 Sudeste 0 -- -- 92
2021-01-19 21:00:00 8.1 5 Sudeste 9 Sur 0 -- -- 90
2021-01-19 20:00:00 8.7 6 Sur 9 Sur 0 -- -- 89
2021-01-19 19:00:00 10.8 5 Sudeste 10 Sur 0 -- -- 83
2021-01-19 18:00:00 12.9 8 Sur 19 Sur 0 -- -- 78
2021-01-19 17:00:00 14 13 Sur 22 Sur 0 -- -- 74
2021-01-19 16:00:00 14.4 13 Sur 21 Sur 0 -- -- 72
2021-01-19 15:00:00 14.7 14 Sur 23 Sur 0 -- -- 72
2021-01-19 14:00:00 15.4 12 Sur 25 Sur 0 -- -- 71
2021-01-19 13:00:00 15.3 17 Sudoeste 30 Sur 0 -- -- 70
2021-01-19 12:00:00 14.3 15 Sur 27 Sur 0 -- -- 76
2021-01-19 11:00:00 9 2 Norte 6 Noroeste 0 -- -- 96
2021-01-19 10:00:00 5 2 Noroeste 4 Noroeste 0 -- -- 97
2021-01-19 09:00:00 2 0 Calma 4 Norte 0 -- -- 97
2021-01-19 08:00:00 0.7 0 Calma 2 Sudeste 0 -- -- 96
2021-01-19 07:00:00 0.3 0 Calma 2 Sur 0 -- -- 96
2021-01-19 06:00:00 0.5 0 Calma 2 Nordeste 0 -- -- 96
2021-01-19 05:00:00 1.2 0 Calma 2 Norte 0 -- -- 96
2021-01-19 04:00:00 1.5 0 Calma 4 Sudeste 0 -- -- 96
2021-01-19 03:00:00 1.5 0 Calma 3 Este 0 -- -- 94
2021-01-19 02:00:00 1.6 0 Calma 2 Oeste 0 -- -- 94
2021-01-19 01:00:00 2.1 0 Calma 2 Sur 0 -- -- 93
2021-01-19 00:00:00 3.4 0 Calma 3 Norte 0 -- -- 93
2021-01-18 23:00:00 4.6 0 Calma 3 Sudeste 0 -- -- 93
2021-01-18 22:00:00 4.2 2 Sudeste 4 Sudeste 0 -- -- 91
2021-01-18 21:00:00 5 0 Calma 5 Sudeste 0 -- -- 89
2021-01-18 20:00:00 6.1 5 Sudeste 6 Sudeste 0 -- -- 88
2021-01-18 19:00:00 7 4 Sudeste 5 Sudeste 0 -- -- 81
2021-01-18 18:00:00 10.9 3 Sudeste 14 Sudeste 0 -- -- 75
2021-01-18 17:00:00 13.4 10 Sudeste 19 Sudeste 0 -- -- 67
2021-01-18 16:00:00 13.2 15 Sudeste 24 Sudeste 0 -- -- 67
2021-01-18 15:00:00 14.1 14 Sudeste 25 Sur 0 -- -- 65
2021-01-18 14:00:00 14.4 8 Sur 17 Sudoeste 0 -- -- 64
2021-01-18 13:00:00 14.1 6 Noroeste 10 Noroeste 0 -- -- 64
2021-01-18 12:00:00 12.9 3 Oeste 5 Noroeste 0 -- -- 72
2021-01-18 11:00:00 10.8 3 Noroeste 6 Norte 0 -- -- 80
2021-01-18 10:00:00 7.8 3 Norte 6 Norte 0 -- -- 92
2021-01-18 09:00:00 3.5 0 Calma 4 Oeste 0 -- -- 95
2021-01-18 08:00:00 2.5 0 Calma 5 Norte 0 -- -- 92
2021-01-18 07:00:00 3.5 3 Norte 4 Norte 0 -- -- 92
2021-01-18 06:00:00 3.9 4 Nordeste 10 Este 0 -- -- 90
2021-01-18 05:00:00 5.1 5 Este 14 Este 0 -- -- 87
2021-01-18 04:00:00 5.7 5 Este 9 Este 0 -- -- 89
2021-01-18 03:00:00 6.2 4 Este 9 Nordeste 0 -- -- 87
2021-01-18 02:00:00 7.6 4 Este 14 Nordeste 0 -- -- 82
2021-01-18 01:00:00 8.3 9 Nordeste 15 Nordeste 0 -- -- 90
2021-01-18 00:00:00 7.6 11 Norte 12 Norte 0 -- -- 92
2021-01-17 23:00:00 7.4 5 Nordeste 9 Nordeste 0 -- -- 91
2021-01-17 22:00:00 9.6 4 Sudeste 11 Nordeste 0 -- -- 84
2021-01-17 21:00:00 12.3 8 Noroeste 22 Oeste 0 -- -- 80
2021-01-17 20:00:00 12.9 17 Oeste 28 Oeste 0 -- -- 78
2021-01-17 19:00:00 13.1 15 Oeste 25 Oeste 0 -- -- 77
2021-01-17 18:00:00 13.4 5 Norte 37 Oeste 0 -- -- 74
2021-01-17 17:00:00 14.9 28 Oeste 43 Oeste 0 -- -- 72
2021-01-17 16:00:00 15.5 31 Oeste 49 Oeste 0 -- -- 69
2021-01-17 15:00:00 15.5 34 Oeste 50 Oeste 0 -- -- 68
2021-01-17 14:00:00 15.5 35 Oeste 51 Oeste 0 -- -- 68
2021-01-17 13:00:00 15.5 27 Oeste 47 Oeste 0 -- -- 68
2021-01-17 12:00:00 15 30 Oeste 46 Oeste 0 -- -- 66
2021-01-17 11:00:00 14.6 32 Oeste 44 Oeste 0 -- -- 67
2021-01-17 10:00:00 13.8 28 Oeste 40 Oeste 0 -- -- 73
2021-01-17 09:00:00 13 25 Oeste 42 Oeste 0 -- -- 76
2021-01-17 08:00:00 12.7 29 Oeste 44 Oeste 0 -- -- 84
2021-01-17 07:00:00 12.7 29 Oeste 45 Oeste 0 -- -- 84
2021-01-17 06:00:00 12.6 31 Oeste 44 Oeste 0 -- -- 82
2021-01-17 05:00:00 12.6 27 Oeste 43 Oeste 0 -- -- 81
2021-01-17 04:00:00 12 24 Oeste 35 Oeste 0 -- -- 79
2021-01-17 03:00:00 10.9 22 Oeste 30 Oeste 0 -- -- 89
2021-01-17 02:00:00 2.2 0 Calma 5 Norte 0 -- -- 95
2021-01-17 01:00:00 2 0 Calma 5 Noroeste 0 -- -- 94
2021-01-17 00:00:00 2.6 0 Calma 5 Norte 0 -- -- 93
2021-01-16 23:00:00 2.7 0 Calma 4 Sudeste 0 -- -- 92
2021-01-16 22:00:00 3.7 2 Sudeste 10 Sudeste 0 -- -- 90
2021-01-16 21:00:00 5.6 4 Sudeste 10 Noroeste 0 -- -- 84
2021-01-16 20:00:00 9.5 10 Noroeste 14 Oeste 0 -- -- 79
2021-01-16 19:00:00 10.9 12 Oeste 18 Oeste 0 -- -- 78
2021-01-16 18:00:00 11.8 11 Oeste 21 Oeste 0 -- -- 77
2021-01-16 17:00:00 12.9 14 Oeste 25 Oeste 0 -- -- 72
2021-01-16 16:00:00 14 15 Oeste 24 Oeste 0 -- -- 61
2021-01-16 15:00:00 13.8 10 Norte 21 Norte 0 -- -- 59
2021-01-16 14:00:00 13.3 13 Norte 27 Nordeste 0 -- -- 61
2021-01-16 13:00:00 12.6 15 Nordeste 32 Nordeste 0 -- -- 61
2021-01-16 12:00:00 12.2 21 Norte 45 Norte 0 -- -- 63
2021-01-16 11:00:00 11.1 12 Nordeste 21 Norte 0 -- -- 78
2021-01-16 10:00:00 9.2 0 Calma 8 Nordeste 0 -- -- 97
2021-01-16 09:00:00 7.5 3 Nordeste 20 Nordeste 0.8 -- -- 97
2021-01-16 08:00:00 6.2 5 Norte 11 Nordeste 0.6 -- -- 98
2021-01-16 07:00:00 2.5 2 Nordeste 4 Norte 0 -- -- 96
2021-01-16 06:00:00 2.6 0 Calma 5 Noroeste 0 -- -- 96
2021-01-16 05:00:00 2.9 3 Norte 9 Nordeste 0 -- -- 96
2021-01-16 04:00:00 4.2 8 Nordeste 11 Nordeste 0 -- -- 96
2021-01-16 03:00:00 0.9 0 Calma 4 Nordeste 0 -- -- 96
2021-01-16 02:00:00 0.8 3 Norte 4 Norte 0 -- -- 95
2021-01-16 01:00:00 0.7 0 Calma 10 Nordeste 0 -- -- 94
2021-01-16 00:00:00 1.1 0 Calma 8 Norte 0 -- -- 93
2021-01-15 23:00:00 2.3 5 Norte 10 Norte 0 -- -- 94
2021-01-15 22:00:00 2.7 3 Sur 6 Norte 0 -- -- 92
2021-01-15 21:00:00 3.3 2 Este 4 Este 0 -- -- 90
2021-01-15 20:00:00 4.8 3 Sudeste 5 Sudeste 0 -- -- 87
2021-01-15 19:00:00 6.1 2 Sur 5 Noroeste 0 -- -- 79
2021-01-15 18:00:00 10.2 8 Noroeste 19 Noroeste 0 -- -- 77
2021-01-15 17:00:00 11.5 14 Oeste 21 Oeste 0 -- -- 71
2021-01-15 16:00:00 11.7 19 Noroeste 38 Noroeste 0 -- -- 71
2021-01-15 15:00:00 12.3 26 Noroeste 36 Noroeste 0 -- -- 69
2021-01-15 14:00:00 13.3 23 Noroeste 33 Noroeste 0 -- -- 68
2021-01-15 13:00:00 13.8 24 Noroeste 31 Noroeste 0 -- -- 65
2021-01-15 12:00:00 13.6 15 Noroeste 25 Oeste 0 -- -- 70
2021-01-15 11:00:00 9.7 0 Calma 5 Oeste 0 -- -- 92
2021-01-15 10:00:00 4.2 0 Calma 4 Oeste 0 -- -- 96
2021-01-15 09:00:00 0.5 0 Calma 3 Norte 0 -- -- 98
2021-01-15 08:00:00 -1.2 0 Calma 3 Sudoeste 0 -- -- 96
2021-01-15 07:00:00 -1.3 0 Calma 3 Sur 0 -- -- 96
2021-01-15 06:00:00 -1.2 0 Calma 5 Norte 0 -- -- 96
2021-01-15 05:00:00 -0.3 2 Norte 4 Noroeste 0 -- -- 96
2021-01-15 04:00:00 -0.5 3 Sudeste 4 Sudeste 0 -- -- 95
2021-01-15 03:00:00 2 3 Noroeste 11 Norte 0 -- -- 96
2021-01-15 02:00:00 2.4 9 Noroeste 13 Noroeste 0 -- -- 97
2021-01-15 01:00:00 1.5 3 Nordeste 6 Norte 0 -- -- 94
2021-01-15 00:00:00 1.3 2 Sudoeste 5 Norte 0 -- -- 92
2021-01-14 23:00:00 2.5 3 Sudeste 4 Sur 0 -- -- 92
2021-01-14 22:00:00 3.4 3 Nordeste 6 Norte 0 -- -- 89
2021-01-14 21:00:00 5.1 3 Norte 10 Norte 0 -- -- 87
2021-01-14 20:00:00 5.8 0 Calma 5 Noroeste 0 -- -- 83
2021-01-14 19:00:00 9 0 Calma 14 Oeste 0 -- -- 77
2021-01-14 18:00:00 11.6 11 Oeste 22 Oeste 0 -- -- 74
2021-01-14 17:00:00 13.5 16 Oeste 27 Oeste 0 -- -- 68
2021-01-14 16:00:00 14 18 Oeste 28 Oeste 0 -- -- 66
2021-01-14 15:00:00 14.3 18 Oeste 28 Oeste 0 -- -- 66
2021-01-14 14:00:00 14.2 17 Oeste 27 Oeste 0 -- -- 65
2021-01-14 13:00:00 14.1 16 Oeste 22 Oeste 0 -- -- 66
2021-01-14 12:00:00 13.9 8 Oeste 14 Sudoeste 0 -- -- 71
2021-01-14 11:00:00 9.8 0 Calma 3 Norte 0 -- -- 94
2021-01-14 10:00:00 4 3 Norte 4 Norte 0 -- -- 97
2021-01-14 09:00:00 0.5 0 Calma 0 Calma 0 -- -- 98
2021-01-14 08:00:00 -1.2 0 Calma 3 Norte 0 -- -- 96
2021-01-14 07:00:00 -1.2 0 Calma 2 Nordeste 0 -- -- 96
2021-01-14 06:00:00 -1 0 Calma 2 Sudeste 0 -- -- 96
2021-01-14 05:00:00 -0.9 0 Calma 3 Sudeste 0 -- -- 96
2021-01-14 04:00:00 -0.7 0 Calma 0 Calma 0 -- -- 95
2021-01-14 03:00:00 -0.4 0 Calma 3 Sur 0 -- -- 95
2021-01-14 02:00:00 0 2 Sudeste 3 Norte 0 -- -- 95
2021-01-14 01:00:00 0.8 0 Calma 3 Sudeste 0 -- -- 94
2021-01-14 00:00:00 1.6 2 Este 5 Noroeste 0 -- -- 94
2021-01-13 23:00:00 2.9 4 Noroeste 5 Noroeste 0 -- -- 94
2021-01-13 22:00:00 3.1 0 Calma 4 Sudeste 0 -- -- 91
2021-01-13 21:00:00 4.5 4 Sur 5 Sur 0 -- -- 89
2021-01-13 20:00:00 7.1 0 Calma 9 Norte 0 -- -- 82
2021-01-13 19:00:00 10.7 5 Noroeste 18 Oeste 0 -- -- 78
2021-01-13 18:00:00 11.8 13 Oeste 23 Oeste 0 -- -- 75
2021-01-13 17:00:00 13.3 17 Oeste 32 Oeste 0 -- -- 69
2021-01-13 16:00:00 13.9 24 Oeste 34 Oeste 0 -- -- 68
2021-01-13 15:00:00 14.4 20 Oeste 28 Oeste 0 -- -- 66
2021-01-13 14:00:00 14.5 11 Sudoeste 16 Sudoeste 0 -- -- 63
2021-01-13 13:00:00 13.5 14 Oeste 26 Oeste 0 -- -- 64
2021-01-13 12:00:00 12.6 18 Oeste 26 Oeste 0 -- -- 70
2021-01-13 11:00:00 7.5 0 Calma 4 Nordeste 0 -- -- 86
2021-01-13 10:00:00 3 0 Calma 4 Oeste 0 -- -- 94
2021-01-13 09:00:00 0.1 0 Calma 2 Norte 0 -- -- 96
2021-01-13 08:00:00 -1.9 0 Calma 3 Oeste 0 -- -- 95
2021-01-13 07:00:00 -1.5 0 Calma 3 Noroeste 0 -- -- 94
2021-01-13 06:00:00 -1.3 0 Calma 2 Noroeste 0 -- -- 93
2021-01-13 05:00:00 -0.2 0 Calma 5 Norte 0 -- -- 93
2021-01-13 04:00:00 -0.6 0 Calma 4 Nordeste 0 -- -- 91
2021-01-13 03:00:00 1.1 3 Norte 5 Nordeste 0 -- -- 90
2021-01-13 02:00:00 3 3 Nordeste 11 Norte 0 -- -- 89
2021-01-13 01:00:00 3.2 6 Oeste 12 Oeste 0 -- -- 93
2021-01-13 00:00:00 0.9 0 Calma 8 Norte 0 -- -- 87
2021-01-12 23:00:00 3.3 0 Calma 10 Oeste 0 -- -- 80
2021-01-12 22:00:00 5.1 4 Noroeste 10 Oeste 0 -- -- 77
2021-01-12 21:00:00 7.3 4 Noroeste 17 Oeste 0 -- -- 72
2021-01-12 20:00:00 8.4 15 Oeste 21 Oeste 0 -- -- 68
2021-01-12 19:00:00 8.8 15 Noroeste 22 Oeste 0 -- -- 68
2021-01-12 18:00:00 10 17 Oeste 30 Oeste 0 -- -- 63
2021-01-12 17:00:00 11.7 24 Oeste 34 Oeste 0 -- -- 55
2021-01-12 16:00:00 12.8 22 Oeste 35 Oeste 0 -- -- 59
2021-01-12 15:00:00 12.5 26 Oeste 38 Oeste 0 -- -- 59
2021-01-12 14:00:00 12.4 25 Oeste 34 Oeste 0 -- -- 62
2021-01-12 13:00:00 12.6 18 Oeste 25 Oeste 0 -- -- 56
2021-01-12 12:00:00 11.7 14 Oeste 29 Oeste 0 -- -- 62
2021-01-12 11:00:00 10.2 23 Noroeste 31 Oeste 0 -- -- 71
2021-01-12 10:00:00 6 5 Noroeste 8 Noroeste 0 -- -- 92
2021-01-12 09:00:00 -0.1 3 Sudeste 4 Sudeste 0 -- -- 96
2021-01-12 08:00:00 -1.4 0 Calma 3 Sudeste 0 -- -- 94
2021-01-12 07:00:00 -1.1 0 Calma 4 Sudeste 0 -- -- 93
2021-01-12 06:00:00 -0.1 0 Calma 4 Norte 0 -- -- 92
2021-01-12 05:00:00 0.3 3 Norte 5 Nordeste 0 -- -- 89
2021-01-12 04:00:00 2.3 0 Calma 7 Oeste 0 -- -- 85
2021-01-12 03:00:00 5.7 8 Noroeste 15 Oeste 0 -- -- 81
2021-01-12 02:00:00 3.9 2 Noroeste 8 Noroeste 0 -- -- 85
2021-01-12 01:00:00 6.3 7 Noroeste 18 Noroeste 0 -- -- 83
2021-01-12 00:00:00 7.4 8 Noroeste 14 Noroeste 0 -- -- 87
2021-01-11 23:00:00 6.2 4 Norte 6 Norte 0 -- -- 92
2021-01-11 22:00:00 6.2 0 Calma 2 Norte 0 -- -- 90
2021-01-11 21:00:00 6.7 0 Calma 2 Este 0 -- -- 88
2021-01-11 20:00:00 7.6 0 Calma 4 Oeste 0 -- -- 84
2021-01-11 19:00:00 8.1 4 Oeste 9 Norte 0 -- -- 79
2021-01-11 18:00:00 8.6 7 Norte 21 Nordeste 0 -- -- 77
2021-01-11 17:00:00 9.5 16 Norte 31 Norte 0 -- -- 72
2021-01-11 16:00:00 9.9 19 Norte 41 Nordeste 0 -- -- 70
2021-01-11 15:00:00 9.9 21 Nordeste 40 Nordeste 0 -- -- 71
2021-01-11 14:00:00 9.8 19 Norte 36 Norte 0 -- -- 71
2021-01-11 13:00:00 10.3 24 Norte 40 Norte 0 -- -- 71
2021-01-11 12:00:00 9.4 19 Norte 32 Norte 0 -- -- 72
2021-01-11 11:00:00 8.8 10 Norte 23 Norte 0 -- -- 79
2021-01-11 10:00:00 8.5 14 Norte 25 Norte 0 -- -- 82
2021-01-11 09:00:00 8.4 13 Norte 27 Norte 0 -- -- 84
2021-01-11 08:00:00 8.1 14 Norte 24 Norte 0 -- -- 87
2021-01-11 07:00:00 7.8 17 Norte 27 Norte 0 -- -- 92
2021-01-11 06:00:00 8.1 16 Norte 29 Norte 0 -- -- 90
2021-01-11 05:00:00 8.1 21 Norte 38 Nordeste 0 -- -- 89
2021-01-11 04:00:00 8.4 22 Norte 36 Nordeste 0 -- -- 88
2021-01-11 03:00:00 8.5 25 Norte 37 Norte 0 -- -- 89
2021-01-11 02:00:00 8.8 25 Nordeste 40 Norte 0 -- -- 89
2021-01-11 01:00:00 9.1 26 Norte 43 Norte 0 -- -- 91
2021-01-11 00:00:00 9.1 18 Norte 28 Nordeste 0 -- -- 92
2021-01-10 23:00:00 9.2 14 Norte 22 Nordeste 0 -- -- 92
2021-01-10 22:00:00 8.3 10 Norte 16 Norte 0 -- -- 93
2021-01-10 21:00:00 7.7 4 Norte 11 Noroeste 0 -- -- 92
2021-01-10 20:00:00 8.9 6 Norte 10 Noroeste 0 -- -- 91
2021-01-10 19:00:00 7.9 3 Sudeste 5 Sudeste 0 -- -- 89
2021-01-10 18:00:00 9.9 3 Sudeste 9 Oeste 0 -- -- 81
2021-01-10 17:00:00 12.2 6 Sudoeste 19 Sudoeste 0 -- -- 75
2021-01-10 16:00:00 12.9 10 Sudoeste 19 Sudoeste 0 -- -- 71
2021-01-10 15:00:00 12.6 14 Oeste 22 Sudoeste 0 -- -- 73
2021-01-10 14:00:00 12.6 11 Sudoeste 24 Oeste 0 -- -- 75
2021-01-10 13:00:00 12.4 13 Sudoeste 31 Sudoeste 0 -- -- 74
2021-01-10 12:00:00 12.2 20 Oeste 36 Oeste 0 -- -- 77
2021-01-10 11:00:00 12.8 16 Sudoeste 37 Sudoeste 0 -- -- 75
2021-01-10 10:00:00 11.6 17 Sudoeste 30 Oeste 0 -- -- 79
2021-01-10 09:00:00 10.5 9 Sudoeste 24 Oeste 0 -- -- 82
2021-01-10 08:00:00 9.9 6 Sudoeste 21 Oeste 0 -- -- 82
2021-01-10 07:00:00 9.9 9 Sudoeste 26 Sudoeste 0 -- -- 81
2021-01-10 06:00:00 9.4 13 Sudoeste 20 Oeste 0 -- -- 87
2021-01-10 05:00:00 9.4 9 Noroeste 23 Oeste 0 -- -- 81
2021-01-10 04:00:00 10 13 Oeste 22 Oeste 0 -- -- 83
2021-01-10 03:00:00 9.8 10 Noroeste 24 Oeste 0 -- -- 85
2021-01-10 02:00:00 10.9 15 Oeste 33 Oeste 0 -- -- 82
2021-01-10 01:00:00 11.7 20 Oeste 30 Oeste 0 -- -- 81
2021-01-10 00:00:00 12.1 19 Oeste 36 Oeste 0 -- -- 79
2021-01-09 23:00:00 12.6 15 Sudoeste 39 Oeste 0 -- -- 76
2021-01-09 22:00:00 12.7 18 Sudoeste 41 Oeste 0 -- -- 77
2021-01-09 21:00:00 12.9 19 Sudoeste 44 Sudoeste 0 -- -- 79
2021-01-09 20:00:00 13.2 21 Sudoeste 39 Sudoeste 0 -- -- 79
2021-01-09 19:00:00 13.2 20 Sudoeste 37 Sudoeste 0 -- -- 85
2021-01-09 18:00:00 13.6 15 Sudoeste 33 Sudoeste 0 -- -- 85
2021-01-09 17:00:00 14.4 13 Sudoeste 31 Sudoeste 0 -- -- 86
2021-01-09 16:00:00 14.4 16 Sudoeste 30 Oeste 0 -- -- 88
2021-01-09 15:00:00 14.8 22 Oeste 43 Sudoeste 0 -- -- 87
2021-01-09 14:00:00 16.5 14 Sudoeste 28 Sudoeste 0 -- -- 83
2021-01-09 13:00:00 16.5 18 Este 25 Este 0 -- -- 90
2021-01-09 12:00:00 14.4 12 Sudeste 28 Este 0 -- -- 95
2021-01-09 11:00:00 13.3 15 Este 27 Este 0 -- -- 96
2021-01-09 10:00:00 11.3 6 Norte 9 Norte 0.2 -- -- 98
2021-01-09 09:00:00 10.4 6 Norte 17 Nordeste 0 -- -- 97
2021-01-09 08:00:00 10.1 10 Nordeste 21 Nordeste 0 -- -- 97
2021-01-09 07:00:00 9.9 14 Nordeste 26 Nordeste 0 -- -- 97
2021-01-09 06:00:00 9.4 15 Nordeste 26 Nordeste 0 -- -- 98
2021-01-09 05:00:00 9.2 15 Nordeste 24 Nordeste 0 -- -- 98
2021-01-09 04:00:00 9 15 Nordeste 26 Nordeste 0 -- -- 97
2021-01-09 03:00:00 9.6 11 Norte 30 Nordeste 0 -- -- 95
2021-01-09 02:00:00 9.6 17 Nordeste 39 Nordeste 0 -- -- 95
2021-01-09 01:00:00 9.3 20 Nordeste 36 Nordeste 0.2 -- -- 96
2021-01-09 00:00:00 8.4 14 Nordeste 26 Nordeste 0 -- -- 96
2021-01-08 23:00:00 8 18 Nordeste 34 Norte 0 -- -- 97
2021-01-08 22:00:00 7.7 15 Nordeste 31 Nordeste 0.2 -- -- 96
2021-01-08 21:00:00 7.5 17 Nordeste 26 Nordeste 0.2 -- -- 94
2021-01-08 20:00:00 7.9 16 Nordeste 31 Nordeste 0.8 -- -- 93
2021-01-08 19:00:00 8 19 Nordeste 37 Nordeste 0.8 -- -- 93
2021-01-08 18:00:00 7.8 19 Nordeste 29 Nordeste 0.8 -- -- 93
2021-01-08 17:00:00 8 16 Nordeste 30 Nordeste 0.4 -- -- 91
2021-01-08 16:00:00 8.4 17 Nordeste 34 Norte 0.8 -- -- 89
2021-01-08 15:00:00 9.6 23 Nordeste 43 Nordeste 0 -- -- 76
2021-01-08 14:00:00 10.1 24 Nordeste 45 Nordeste 0 -- -- 71
2021-01-08 13:00:00 10.1 27 Nordeste 43 Norte 0 -- -- 70
2021-01-08 12:00:00 9.7 25 Nordeste 44 Nordeste 0 -- -- 72
2021-01-08 11:00:00 9.2 19 Nordeste 34 Nordeste 0 -- -- 78
2021-01-08 10:00:00 8.1 12 Nordeste 23 Nordeste 0 -- -- 86
2021-01-08 09:00:00 7 12 Nordeste 19 Nordeste 0 -- -- 93
2021-01-08 08:00:00 6.4 10 Nordeste 28 Nordeste 0.2 -- -- 94
2021-01-08 07:00:00 6.5 15 Nordeste 30 Nordeste 0.4 -- -- 94
2021-01-08 06:00:00 6.5 14 Nordeste 28 Nordeste 1.6 -- -- 94
2021-01-08 05:00:00 6.5 13 Nordeste 30 Nordeste 1.6 -- -- 93
2021-01-08 04:00:00 6.5 18 Nordeste 34 Nordeste 1 -- -- 91
2021-01-08 03:00:00 7.1 21 Nordeste 36 Nordeste 0.2 -- -- 83
2021-01-08 02:00:00 7.1 19 Nordeste 35 Nordeste 0 -- -- 87
2021-01-08 01:00:00 7.1 17 Nordeste 32 Nordeste 0 -- -- 90
2021-01-08 00:00:00 7.1 16 Nordeste 28 Nordeste 0.2 -- -- 90
2021-01-07 23:00:00 7.1 18 Nordeste 28 Nordeste 0.4 -- -- 93
2021-01-07 22:00:00 7.4 13 Nordeste 27 Norte 0 -- -- 93
2021-01-07 21:00:00 7.2 13 Nordeste 21 Nordeste 0.2 -- -- 94
2021-01-07 20:00:00 7.4 13 Nordeste 30 Nordeste 0.6 -- -- 95
2021-01-07 19:00:00 7.5 19 Nordeste 27 Nordeste 0.4 -- -- 96
2021-01-07 18:00:00 8 14 Nordeste 21 Norte 0.4 -- -- 95
2021-01-07 17:00:00 8.4 9 Nordeste 20 Nordeste 0 -- -- 93
2021-01-07 16:00:00 8.8 11 Nordeste 19 Nordeste 0.2 -- -- 92
2021-01-07 15:00:00 8.8 12 Nordeste 26 Nordeste 0.2 -- -- 93
2021-01-07 14:00:00 8.6 17 Nordeste 27 Nordeste 0 -- -- 90
2021-01-07 13:00:00 9.2 14 Nordeste 28 Nordeste 0 -- -- 85
2021-01-07 12:00:00 8.3 15 Nordeste 24 Norte 0 -- -- 89
2021-01-07 11:00:00 7.3 13 Nordeste 22 Norte 0 -- -- 92
2021-01-07 10:00:00 6.3 12 Nordeste 17 Nordeste 0 -- -- 94
2021-01-07 09:00:00 5.8 9 Nordeste 16 Norte 0.2 -- -- 95
2021-01-07 08:00:00 5.8 9 Nordeste 17 Nordeste 0 -- -- 94
2021-01-07 07:00:00 6.1 11 Nordeste 21 Nordeste 0.2 -- -- 92
2021-01-07 06:00:00 6.4 10 Nordeste 16 Norte 0.2 -- -- 91
2021-01-07 05:00:00 7.2 9 Nordeste 19 Este 0.2 -- -- 85
2021-01-07 04:00:00 6.3 12 Norte 19 Norte 0 -- -- 85
2021-01-07 03:00:00 5.6 11 Nordeste 16 Nordeste 0 -- -- 88
2021-01-07 02:00:00 5.4 10 Nordeste 15 Norte 0 -- -- 88
2021-01-07 01:00:00 5 9 Norte 15 Nordeste 0 -- -- 89
2021-01-07 00:00:00 5.4 11 Nordeste 18 Nordeste 0 -- -- 87
2021-01-06 23:00:00 5.2 11 Nordeste 18 Nordeste 0 -- -- 89
2021-01-06 22:00:00 4.3 6 Norte 10 Nordeste 0 -- -- 91
2021-01-06 21:00:00 3.9 7 Norte 8 Norte 0 -- -- 89
2021-01-06 20:00:00 4.4 3 Oeste 6 Noroeste 0 -- -- 85
2021-01-06 19:00:00 6.3 4 Nordeste 13 Nordeste 0 -- -- 78
2021-01-06 18:00:00 8.6 8 Nordeste 15 Nordeste 0 -- -- 73
2021-01-06 17:00:00 10.1 10 Nordeste 21 Norte 0 -- -- 70
2021-01-06 16:00:00 11.9 11 Norte 22 Nordeste 0 -- -- 63
2021-01-06 15:00:00 12.8 4 Nordeste 12 Nordeste 0 -- -- 47
2021-01-06 14:00:00 12 4 Norte 17 Norte 0 -- -- 52
2021-01-06 13:00:00 12.2 3 Oeste 10 Nordeste 0 -- -- 52
2021-01-06 12:00:00 10.4 5 Norte 9 Nordeste 0 -- -- 61
2021-01-06 11:00:00 7.4 0 Calma 4 Noroeste 0 -- -- 86
2021-01-06 10:00:00 2.8 0 Calma 4 Noroeste 0 -- -- 96
2021-01-06 09:00:00 -1.6 0 Calma 4 Noroeste 0 -- -- 96
2021-01-06 08:00:00 -3 3 Norte 4 Norte 0 -- -- 97
2021-01-06 07:00:00 -3.7 0 Calma 4 Sudeste 0 -- -- 95
2021-01-06 06:00:00 -3.7 0 Calma 2 Sudeste 0 -- -- 95
2021-01-06 05:00:00 -3.4 0 Calma 3 Sudeste 0 -- -- 95
2021-01-06 04:00:00 -3.3 0 Calma 2 Sudeste 0 -- -- 95
2021-01-06 03:00:00 -3.1 0 Calma 3 Sudeste 0 -- -- 94
2021-01-06 02:00:00 -2.7 2 Sudeste 3 Sudeste 0 -- -- 94
2021-01-06 01:00:00 -2.3 0 Calma 3 Sudeste 0 -- -- 93
2021-01-06 00:00:00 -1.8 0 Calma 3 Norte 0 -- -- 93
2021-01-05 23:00:00 -1.1 0 Calma 2 Sudeste 0 -- -- 92
2021-01-05 22:00:00 -0.5 0 Calma 3 Nordeste 0 -- -- 91
2021-01-05 21:00:00 0 0 Calma 3 Sur 0 -- -- 88
2021-01-05 20:00:00 1.2 4 Sur 5 Sudeste 0 -- -- 83
2021-01-05 19:00:00 4.3 2 Sudeste 11 Noroeste 0 -- -- 75
2021-01-05 18:00:00 7.1 9 Noroeste 19 Noroeste 0 -- -- 72
2021-01-05 17:00:00 9.1 15 Noroeste 25 Noroeste 0 -- -- 65
2021-01-05 16:00:00 10 15 Noroeste 27 Oeste 0 -- -- 64
2021-01-05 15:00:00 11.1 19 Noroeste 46 Noroeste 0 -- -- 52
2021-01-05 14:00:00 10.8 13 Noroeste 30 Oeste 0 -- -- 61
2021-01-05 13:00:00 10.7 19 Noroeste 31 Noroeste 0 -- -- 61
2021-01-05 12:00:00 9.8 19 Noroeste 28 Noroeste 0 -- -- 67
2021-01-05 11:00:00 7.4 2 Oeste 13 Norte 0 -- -- 93
2021-01-05 10:00:00 4.1 8 Norte 14 Norte 0 -- -- 95
2021-01-05 09:00:00 3.3 5 Sudeste 17 Oeste 1.2 -- -- 95
2021-01-05 08:00:00 1.7 5 Oeste 17 Norte 0 -- -- 95
2021-01-05 07:00:00 -0.8 3 Norte 8 Norte 0 -- -- 95
2021-01-05 06:00:00 -1.4 4 Sudeste 6 Sudeste 0 -- -- 94
2021-01-05 05:00:00 -0.5 2 Este 5 Nordeste 0 -- -- 93
2021-01-05 04:00:00 0.1 0 Calma 6 Norte 0 -- -- 91
2021-01-05 03:00:00 1.8 0 Calma 10 Nordeste 0 -- -- 88
2021-01-05 02:00:00 4.5 2 Norte 33 Norte 0.2 -- -- 88
2021-01-05 01:00:00 4.6 17 Noroeste 32 Noroeste 0 -- -- 96
2021-01-05 00:00:00 1.6 0 Calma 3 Este 0 -- -- 93
2021-01-04 23:00:00 2 0 Calma 3 Norte 0 -- -- 92
2021-01-04 22:00:00 3.3 0 Calma 4 Norte 0 -- -- 91
2021-01-04 21:00:00 3.9 3 Norte 4 Sur 0 -- -- 91
2021-01-04 20:00:00 4.2 0 Calma 3 Norte 0 -- -- 86
2021-01-04 19:00:00 5.7 0 Calma 9 Norte 0 -- -- 83
2021-01-04 18:00:00 7.4 7 Norte 30 Noroeste 0 -- -- 78
2021-01-04 17:00:00 10.8 27 Oeste 44 Oeste 0 -- -- 65
2021-01-04 16:00:00 12.2 30 Oeste 54 Oeste 0 -- -- 62
2021-01-04 15:00:00 11.5 25 Oeste 40 Oeste 0 -- -- 62
2021-01-04 14:00:00 12.3 27 Oeste 42 Oeste 0 -- -- 65
2021-01-04 13:00:00 12 24 Oeste 38 Oeste 0 -- -- 61
2021-01-04 12:00:00 11.2 19 Oeste 38 Oeste 0 -- -- 67
2021-01-04 11:00:00 9.8 22 Oeste 33 Oeste 0 -- -- 89
2021-01-04 10:00:00 3 0 Calma 4 Oeste 0 -- -- 95
2021-01-04 09:00:00 1.8 3 Norte 6 Noroeste 0 -- -- 95
2021-01-04 08:00:00 1.7 0 Calma 6 Sudeste 0.2 -- -- 93
2021-01-04 07:00:00 2.9 4 Nordeste 18 Noroeste 0.4 -- -- 93
2021-01-04 06:00:00 1.9 4 Norte 13 Oeste 1.4 -- -- 92
2021-01-04 05:00:00 0.8 0 Calma 9 Oeste 0 -- -- 88
2021-01-04 04:00:00 2.2 3 Sudeste 13 Noroeste 0 -- -- 88
2021-01-04 03:00:00 2.7 3 Sudeste 6 Oeste 0 -- -- 81
2021-01-04 02:00:00 5.5 2 Nordeste 10 Nordeste 0 -- -- 77
2021-01-04 01:00:00 6.4 3 Norte 11 Norte 0 -- -- 77
2021-01-04 00:00:00 6.2 3 Nordeste 16 Noroeste 0 -- -- 74
2021-01-03 23:00:00 6.6 10 Noroeste 17 Oeste 0 -- -- 76
2021-01-03 22:00:00 7.1 8 Noroeste 21 Oeste 0 -- -- 68
2021-01-03 21:00:00 7 8 Noroeste 19 Oeste 0 -- -- 70
2021-01-03 20:00:00 8.2 15 Oeste 22 Oeste 0 -- -- 62
2021-01-03 19:00:00 7.1 2 Norte 22 Oeste 0 -- -- 71
2021-01-03 18:00:00 8.9 17 Oeste 28 Oeste 0 -- -- 63
2021-01-03 17:00:00 9.9 14 Oeste 26 Oeste 0 -- -- 58
2021-01-03 16:00:00 10.7 16 Oeste 32 Noroeste 0 -- -- 56
2021-01-03 15:00:00 11.6 22 Oeste 35 Oeste 0 -- -- 55
2021-01-03 14:00:00 11.7 19 Oeste 30 Oeste 0 -- -- 52
2021-01-03 13:00:00 11.2 14 Noroeste 26 Oeste 0 -- -- 59
2021-01-03 12:00:00 10.1 9 Oeste 15 Noroeste 0 -- -- 72
2021-01-03 11:00:00 7.9 2 Oeste 8 Noroeste 0 -- -- 84
2021-01-03 10:00:00 4.9 4 Norte 6 Norte 0 -- -- 90
2021-01-03 09:00:00 2.2 0 Calma 5 Norte 0 -- -- 92
2021-01-03 08:00:00 2.7 5 Norte 23 Nordeste 0 -- -- 91
2021-01-03 07:00:00 3.4 12 Nordeste 23 Nordeste 0 -- -- 90
2021-01-03 06:00:00 4.5 15 Nordeste 23 Nordeste 0 -- -- 86
2021-01-03 05:00:00 4.2 6 Norte 23 Nordeste 0 -- -- 86
2021-01-03 04:00:00 4.7 11 Nordeste 24 Nordeste 0 -- -- 81
2021-01-03 03:00:00 3.2 9 Norte 15 Norte 0 -- -- 94
2021-01-03 02:00:00 -0.2 2 Norte 4 Sudeste 0 -- -- 96
2021-01-03 01:00:00 -0.4 3 Sudeste 5 Sudeste 0 -- -- 95
2021-01-03 00:00:00 0.4 0 Calma 12 Noroeste 0 -- -- 94
2021-01-02 23:00:00 1.2 2 Nordeste 15 Noroeste 0 -- -- 95
2021-01-02 22:00:00 1.3 6 Sudeste 9 Sudeste 0 -- -- 92
2021-01-02 21:00:00 2.1 4 Sudeste 5 Sudeste 0 -- -- 91
2021-01-02 20:00:00 3.6 3 Nordeste 9 Norte 0 -- -- 91
2021-01-02 19:00:00 3.5 9 Norte 15 Norte 0 -- -- 90
2021-01-02 18:00:00 5.5 2 Este 42 Oeste 0 -- -- 80
2021-01-02 17:00:00 6.8 13 Sudoeste 36 Oeste 0 -- -- 76
2021-01-02 16:00:00 7.8 6 Oeste 11 Sur 0 -- -- 82
2021-01-02 15:00:00 7.8 7 Sur 14 Noroeste 0 -- -- 83
2021-01-02 14:00:00 7.7 6 Noroeste 28 Noroeste 0.4 -- -- 82